createdAt,value
2023-02-14T00:00:02.590Z,23.27
2023-02-14T00:02:30.337Z,23.73
2023-02-14T00:04:59.522Z,26.07
2023-02-14T00:07:27.196Z,25.23
2023-02-14T00:09:54.809Z,23.97
2023-02-14T00:12:22.458Z,24.57
2023-02-14T00:15:07.624Z,24.80
2023-02-14T00:17:35.274Z,25.20
2023-02-14T00:20:05.138Z,23.90
2023-02-14T00:22:32.908Z,26.10
2023-02-14T00:25:00.534Z,24.67
2023-02-14T00:27:28.155Z,26.83
2023-02-14T00:29:58.183Z,27.17
2023-02-14T00:32:25.771Z,26.23
2023-02-14T00:34:53.414Z,25.83
2023-02-14T00:37:22.775Z,26.70
2023-02-14T00:39:50.429Z,25.40
2023-02-14T00:42:18.549Z,26.60
2023-02-14T00:44:46.215Z,25.73
2023-02-14T00:47:13.778Z,26.20
2023-02-14T00:49:41.386Z,26.70
2023-02-14T00:52:09.092Z,24.83
2023-02-14T00:54:38.030Z,24.90
2023-02-14T00:57:05.605Z,23.93
2023-02-14T00:59:33.342Z,25.13
2023-02-14T01:02:01.091Z,26.10
2023-02-14T01:04:28.808Z,24.87
2023-02-14T01:06:56.426Z,25.07
2023-02-14T01:09:24.031Z,24.20
2023-02-14T01:11:53.003Z,25.00
2023-02-14T01:14:20.606Z,25.10
2023-02-14T01:16:48.248Z,24.40
2023-02-14T01:19:15.859Z,26.00
2023-02-14T01:21:43.502Z,24.90
2023-02-14T01:24:12.909Z,26.47
2023-02-14T01:26:40.677Z,26.33
2023-02-14T01:29:09.649Z,26.40
2023-02-14T01:31:37.588Z,26.13
2023-02-14T01:34:05.666Z,26.60
2023-02-14T01:36:36.056Z,25.43
2023-02-14T01:39:06.022Z,27.53
2023-02-14T01:41:35.648Z,26.63
2023-02-14T01:44:05.572Z,27.00
2023-02-14T01:46:36.564Z,27.80
2023-02-14T01:49:10.081Z,26.93
2023-02-14T01:51:42.052Z,28.40
2023-02-14T01:54:10.887Z,26.40
2023-02-14T01:56:42.832Z,28.30
2023-02-14T01:59:14.000Z,30.17
2023-02-14T02:01:43.771Z,29.80
2023-02-14T02:04:16.512Z,29.30
2023-02-14T02:06:47.828Z,29.50
2023-02-14T02:09:21.105Z,29.17
2023-02-14T02:11:49.492Z,27.93
2023-02-14T02:14:19.003Z,28.33
2023-02-14T02:17:09.025Z,29.10
2023-02-14T02:20:07.997Z,28.87
2023-02-14T02:22:57.144Z,28.03
2023-02-14T02:25:43.141Z,29.23
2023-02-14T02:28:37.310Z,28.10
2023-02-14T02:31:21.008Z,27.90
2023-02-14T02:34:34.614Z,28.83
2023-02-14T02:37:20.848Z,28.80
2023-02-14T02:40:05.700Z,29.50
2023-02-14T02:42:43.735Z,29.50
2023-02-14T02:45:19.948Z,28.63
2023-02-14T02:47:56.062Z,28.53
2023-02-14T02:50:47.521Z,29.77
2023-02-14T02:53:24.088Z,29.13
2023-02-14T02:56:19.357Z,31.57
2023-02-14T02:58:52.080Z,28.50
2023-02-14T03:01:22.969Z,26.87
2023-02-14T03:04:10.411Z,28.33
2023-02-14T03:06:37.993Z,27.17
2023-02-14T03:09:52.643Z,28.40
2023-02-14T03:12:40.923Z,28.13
2023-02-14T03:15:18.247Z,30.10
2023-02-14T03:17:58.965Z,30.03
2023-02-14T03:20:36.071Z,29.70
2023-02-14T03:23:09.444Z,30.97
2023-02-14T03:25:45.019Z,30.90
2023-02-14T03:28:18.126Z,30.33
2023-02-14T03:30:53.261Z,32.83
2023-02-14T03:33:28.089Z,30.57
2023-02-14T03:36:02.917Z,32.13
2023-02-14T03:38:35.601Z,30.83
2023-02-14T03:41:08.803Z,32.00
2023-02-14T03:43:42.392Z,31.13
2023-02-14T03:46:14.641Z,32.70
2023-02-14T03:48:43.912Z,30.10
2023-02-14T03:51:14.837Z,33.63
2023-02-14T03:53:48.774Z,35.13
2023-02-14T03:56:24.051Z,38.93
2023-02-14T03:58:54.877Z,40.97
2023-02-14T04:01:25.866Z,40.70
2023-02-14T04:03:57.319Z,41.77
2023-02-14T04:06:25.496Z,44.10
2023-02-14T04:08:53.319Z,46.20
2023-02-14T04:11:24.501Z,47.67
2023-02-14T04:13:52.497Z,50.50
2023-02-14T04:16:20.232Z,48.80
2023-02-14T04:19:01.769Z,51.73
2023-02-14T04:21:29.336Z,50.70
2023-02-14T04:23:57.313Z,51.10
2023-02-14T04:26:26.261Z,51.93
2023-02-14T04:28:53.844Z,50.47
2023-02-14T04:31:21.910Z,50.97
2023-02-14T04:33:51.200Z,51.00
2023-02-14T04:36:18.904Z,51.47
2023-02-14T04:38:46.542Z,50.37
2023-02-14T04:41:14.228Z,49.20
2023-02-14T04:43:43.179Z,49.80
2023-02-14T04:46:10.817Z,49.93
2023-02-14T04:48:38.388Z,51.43
2023-02-14T04:51:07.017Z,52.83
2023-02-14T04:53:40.084Z,51.10
2023-02-14T04:56:08.666Z,50.77
2023-02-14T04:58:36.481Z,49.07
2023-02-14T05:01:05.544Z,49.50
2023-02-14T05:03:33.211Z,45.97
2023-02-14T05:06:00.844Z,48.00
2023-02-14T05:08:28.403Z,46.10
2023-02-14T05:10:56.078Z,45.30
2023-02-14T05:13:23.837Z,45.47
2023-02-14T05:15:51.425Z,44.70
2023-02-14T05:18:20.474Z,42.03
2023-02-14T05:20:50.470Z,44.00
2023-02-14T05:23:18.182Z,41.17
2023-02-14T05:25:46.271Z,40.53
2023-02-14T05:28:13.874Z,42.20
2023-02-14T05:30:42.123Z,41.07
2023-02-14T05:33:09.845Z,40.90
2023-02-14T05:35:39.085Z,41.10
2023-02-14T05:38:06.742Z,40.63
2023-02-14T05:40:34.649Z,42.00
2023-02-14T05:43:02.405Z,38.93
2023-02-14T05:45:30.222Z,41.40
2023-02-14T05:47:57.832Z,41.33
2023-02-14T05:50:25.377Z,40.07
2023-02-14T05:52:54.378Z,38.77
2023-02-14T05:55:22.143Z,41.77
2023-02-14T05:57:49.741Z,42.47
2023-02-14T06:00:19.019Z,40.77
2023-02-14T06:02:46.612Z,40.83
2023-02-14T06:05:14.865Z,41.57
2023-02-14T06:07:43.188Z,40.67
2023-02-14T06:10:12.749Z,42.00
2023-02-14T06:12:40.344Z,40.90
2023-02-14T06:15:08.651Z,41.10
2023-02-14T06:17:36.288Z,40.20
2023-02-14T06:20:03.928Z,41.83
2023-02-14T06:22:31.768Z,41.27
2023-02-14T06:24:59.436Z,40.87
2023-02-14T06:27:29.891Z,42.37
2023-02-14T06:29:57.641Z,38.80
2023-02-14T06:32:25.591Z,43.07
2023-02-14T06:34:53.259Z,43.13
2023-02-14T06:37:21.140Z,39.17
2023-02-14T06:39:48.760Z,39.43
2023-02-14T06:42:16.452Z,40.67
2023-02-14T06:44:45.387Z,42.80
2023-02-14T06:47:12.981Z,41.17
2023-02-14T06:49:40.697Z,42.40
2023-02-14T06:52:08.421Z,43.70
2023-02-14T06:54:35.967Z,41.93
2023-02-14T06:57:03.763Z,41.23
2023-02-14T06:59:31.372Z,42.60
2023-02-14T07:02:00.405Z,41.87
2023-02-14T07:04:28.368Z,42.73
2023-02-14T07:06:56.135Z,41.53
2023-02-14T07:09:24.245Z,41.80
2023-02-14T07:11:51.882Z,43.97
2023-02-14T07:14:19.472Z,39.93
2023-02-14T07:16:47.208Z,41.03
2023-02-14T07:19:16.547Z,41.03
2023-02-14T07:21:44.147Z,41.87
2023-02-14T07:24:11.892Z,41.40
2023-02-14T07:26:39.498Z,39.90
2023-02-14T07:29:07.151Z,39.50
2023-02-14T07:31:34.958Z,42.00
2023-02-14T07:34:02.671Z,40.27
2023-02-14T07:36:31.928Z,41.33
2023-02-14T07:38:59.628Z,40.40
2023-02-14T07:41:27.216Z,38.80
2023-02-14T07:43:54.820Z,42.10
2023-02-14T07:46:23.406Z,41.73
2023-02-14T07:48:51.960Z,43.13
2023-02-14T07:51:19.663Z,42.87
2023-02-14T07:53:48.812Z,41.07
2023-02-14T07:56:16.527Z,46.37
2023-02-14T07:58:44.138Z,44.97
2023-02-14T08:01:11.942Z,40.77
2023-02-14T08:03:39.632Z,39.63
2023-02-14T08:06:07.204Z,41.20
2023-02-14T08:08:34.771Z,42.87
2023-02-14T08:11:03.837Z,45.50
2023-02-14T08:13:30.795Z,42.70
2023-02-14T08:16:09.338Z,40.57
2023-02-14T08:18:38.849Z,44.20
2023-02-14T08:21:08.436Z,41.80
2023-02-14T08:23:36.756Z,43.07
2023-02-14T08:26:06.209Z,42.90
2023-02-14T08:28:34.910Z,43.83
2023-02-14T08:31:03.549Z,41.40
2023-02-14T08:33:31.324Z,43.40
2023-02-14T08:35:58.917Z,42.87
2023-02-14T08:38:26.530Z,43.13
2023-02-14T08:40:54.144Z,42.60
2023-02-14T08:43:23.149Z,43.87
2023-02-14T08:45:53.979Z,44.17
2023-02-14T08:48:23.421Z,44.50
2023-02-14T08:50:51.190Z,46.27
2023-02-14T08:53:18.922Z,44.80
2023-02-14T08:55:46.514Z,43.33
2023-02-14T08:58:14.322Z,46.13
2023-02-14T09:00:43.340Z,44.80
2023-02-14T09:03:11.516Z,40.97
2023-02-14T09:05:39.323Z,43.77
2023-02-14T09:08:07.644Z,42.10
2023-02-14T09:10:35.342Z,43.87
2023-02-14T09:13:03.020Z,45.87
2023-02-14T09:15:30.804Z,43.00
2023-02-14T09:17:59.842Z,45.30
2023-02-14T09:20:27.559Z,46.03
2023-02-14T09:22:56.679Z,45.57
2023-02-14T09:25:24.308Z,46.57
2023-02-14T09:27:51.872Z,41.53
2023-02-14T09:30:19.652Z,43.63
2023-02-14T09:32:47.382Z,45.47
2023-02-14T09:35:16.653Z,48.47
2023-02-14T09:38:01.741Z,45.10
2023-02-14T09:40:29.383Z,41.90
2023-02-14T09:43:06.179Z,41.53
2023-02-14T09:45:35.068Z,43.10
2023-02-14T09:48:07.468Z,40.10
2023-02-14T09:50:43.389Z,40.90
2023-02-14T09:53:22.673Z,42.40
2023-02-14T09:55:56.972Z,41.10
2023-02-14T09:58:32.272Z,40.20
2023-02-14T10:01:06.190Z,42.53
2023-02-14T10:04:07.118Z,45.20
2023-02-14T10:06:47.316Z,41.80
2023-02-14T10:09:26.623Z,44.30
2023-02-14T10:11:55.345Z,41.10
2023-02-14T10:14:26.971Z,40.90
2023-02-14T10:16:57.967Z,39.77
2023-02-14T10:19:29.667Z,39.67
2023-02-14T10:22:05.414Z,41.23
2023-02-14T10:24:38.358Z,41.00
2023-02-14T10:27:13.322Z,41.33
2023-02-14T10:29:43.178Z,37.77
2023-02-14T10:32:15.492Z,40.00
2023-02-14T10:34:47.864Z,37.33
2023-02-14T10:37:41.504Z,40.90
2023-02-14T10:40:42.712Z,37.40
2023-02-14T10:43:22.014Z,38.63
2023-02-14T10:46:00.200Z,39.60
2023-02-14T10:48:34.121Z,39.43
2023-02-14T10:51:05.882Z,36.67
2023-02-14T10:53:40.618Z,37.17
2023-02-14T10:56:18.460Z,35.50
2023-02-14T10:58:48.160Z,37.20
2023-02-14T11:01:18.680Z,37.83
2023-02-14T11:03:54.613Z,37.20
2023-02-14T11:06:22.402Z,36.10
2023-02-14T11:08:51.445Z,36.07
2023-02-14T11:11:25.734Z,38.13
2023-02-14T11:13:53.589Z,35.10
2023-02-14T11:16:30.858Z,37.60
2023-02-14T11:19:10.527Z,35.67
2023-02-14T11:21:39.329Z,37.90
2023-02-14T11:24:20.244Z,38.20
2023-02-14T11:26:49.676Z,38.43
2023-02-14T11:29:26.394Z,38.83
2023-02-14T11:31:54.674Z,37.40
2023-02-14T11:34:32.005Z,37.90
2023-02-14T11:37:00.272Z,38.80
2023-02-14T11:39:32.369Z,39.20
2023-02-14T11:42:04.187Z,39.40
2023-02-14T11:44:33.958Z,38.30
2023-02-14T11:47:18.087Z,37.17
2023-02-14T11:49:56.453Z,36.00
2023-02-14T11:52:26.706Z,40.70
2023-02-14T11:54:56.378Z,39.57
2023-02-14T11:57:28.255Z,39.90
2023-02-14T11:59:57.697Z,38.90
2023-02-14T12:02:30.195Z,38.57
2023-02-14T12:05:00.853Z,39.10
2023-02-14T12:07:31.846Z,40.50
2023-02-14T12:10:24.178Z,38.70
2023-02-14T12:12:57.929Z,41.70
2023-02-14T12:15:34.381Z,39.03
2023-02-14T12:18:29.768Z,40.30
2023-02-14T12:21:04.143Z,39.40
2023-02-14T12:23:40.108Z,40.27
2023-02-14T12:26:18.676Z,41.53
2023-02-14T12:28:52.754Z,37.77
2023-02-14T12:31:20.881Z,40.17
2023-02-14T12:33:50.515Z,42.60
2023-02-14T12:36:32.551Z,42.80
2023-02-14T12:39:10.284Z,40.40
2023-02-14T12:41:49.360Z,40.73
2023-02-14T12:44:26.961Z,38.50
2023-02-14T12:47:16.036Z,44.40
2023-02-14T12:50:14.965Z,44.60
2023-02-14T12:53:01.028Z,42.23
2023-02-14T12:55:42.436Z,42.10
2023-02-14T12:58:26.683Z,38.60
2023-02-14T13:01:07.400Z,43.57
2023-02-14T13:03:57.617Z,43.60
2023-02-14T13:06:30.361Z,43.83
2023-02-14T13:09:14.709Z,42.40
2023-02-14T13:11:55.425Z,43.27
2023-02-14T13:14:45.688Z,44.97
2023-02-14T13:17:21.771Z,43.83
2023-02-14T13:20:00.477Z,41.53
2023-02-14T13:22:31.367Z,41.13
2023-02-14T13:25:02.321Z,44.10
2023-02-14T13:27:34.047Z,44.97
2023-02-14T13:30:06.218Z,45.50
2023-02-14T13:32:39.984Z,46.77
2023-02-14T13:35:09.302Z,46.17
2023-02-14T13:37:38.158Z,46.80
2023-02-14T13:40:09.398Z,46.13
2023-02-14T13:42:53.637Z,47.40
2023-02-14T13:45:56.371Z,44.70
2023-02-14T13:48:27.433Z,51.17
2023-02-14T13:50:58.280Z,45.97
2023-02-14T13:53:35.750Z,45.33
2023-02-14T13:56:06.285Z,48.47
2023-02-14T13:58:34.517Z,45.20
2023-02-14T14:01:31.482Z,45.43
2023-02-14T14:04:02.331Z,44.20
2023-02-14T14:06:30.740Z,43.80
2023-02-14T14:08:58.577Z,45.50
2023-02-14T14:12:00.673Z,46.37
2023-02-14T14:14:36.125Z,46.53
2023-02-14T14:17:20.550Z,47.57
2023-02-14T14:19:48.737Z,47.17
2023-02-14T14:22:17.649Z,50.07
2023-02-14T14:25:04.087Z,47.60
2023-02-14T14:27:35.404Z,49.70
2023-02-14T14:30:06.045Z,46.00
2023-02-14T14:32:36.884Z,49.27
2023-02-14T14:35:08.188Z,47.33
2023-02-14T14:37:37.481Z,45.97
2023-02-14T14:40:08.146Z,46.07
2023-02-14T14:42:38.479Z,47.67
2023-02-14T14:45:10.400Z,45.07
2023-02-14T14:47:44.390Z,47.13
2023-02-14T14:50:18.493Z,46.00
2023-02-14T14:52:49.781Z,45.50
2023-02-14T14:55:21.231Z,46.30
2023-02-14T14:57:53.584Z,46.57
2023-02-14T15:00:28.661Z,48.83
2023-02-14T15:03:00.342Z,49.13
2023-02-14T15:05:30.340Z,46.50
2023-02-14T15:07:58.762Z,49.87
2023-02-14T15:10:30.058Z,48.80
2023-02-14T15:13:17.290Z,48.73
2023-02-14T15:15:50.942Z,43.70
2023-02-14T15:18:22.359Z,46.03
2023-02-14T15:20:50.953Z,49.00
2023-02-14T15:23:21.599Z,47.67
2023-02-14T15:25:50.423Z,47.10
2023-02-14T15:28:29.424Z,47.00
2023-02-14T15:31:00.154Z,47.77
2023-02-14T15:33:31.461Z,45.40
2023-02-14T15:36:02.965Z,45.63
2023-02-14T15:38:32.051Z,49.87
2023-02-14T15:41:01.370Z,45.73
2023-02-14T15:43:32.380Z,47.17
2023-02-14T15:46:14.206Z,47.27
2023-02-14T15:48:43.989Z,46.50
2023-02-14T15:51:18.637Z,48.73
2023-02-14T15:53:52.628Z,44.80
2023-02-14T15:56:24.663Z,49.17
2023-02-14T15:58:58.669Z,47.67
2023-02-14T16:01:26.988Z,48.80
2023-02-14T16:03:59.602Z,46.90
2023-02-14T16:06:34.014Z,46.00
2023-02-14T16:09:03.062Z,47.30
2023-02-14T16:11:32.498Z,47.00
2023-02-14T16:14:20.160Z,44.30
2023-02-14T16:17:00.183Z,46.80
2023-02-14T16:19:39.255Z,51.50
2023-02-14T16:22:08.038Z,46.37
2023-02-14T16:24:37.814Z,48.60
2023-02-14T16:27:07.820Z,47.60
2023-02-14T16:29:37.312Z,46.30
2023-02-14T16:32:18.075Z,50.67
2023-02-14T16:34:48.120Z,49.07
2023-02-14T16:37:22.091Z,50.13
2023-02-14T16:39:50.712Z,47.97
2023-02-14T16:42:19.218Z,49.73
2023-02-14T16:44:47.494Z,50.10
2023-02-14T16:47:18.048Z,50.20
2023-02-14T16:49:46.286Z,49.27
2023-02-14T16:52:15.850Z,49.67
2023-02-14T16:54:43.728Z,51.83
2023-02-14T16:57:19.015Z,53.10
2023-02-14T16:59:47.028Z,52.03
2023-02-14T17:02:18.306Z,49.70
2023-02-14T17:04:46.184Z,51.30
2023-02-14T17:07:16.487Z,52.57
2023-02-14T17:09:48.457Z,50.47
2023-02-14T17:12:20.518Z,52.50
2023-02-14T17:14:50.639Z,55.57
2023-02-14T17:17:19.789Z,53.10
2023-02-14T17:19:47.562Z,53.87
2023-02-14T17:22:15.893Z,53.80
2023-02-14T17:24:43.467Z,57.80
2023-02-14T17:27:11.222Z,57.33
2023-02-14T17:29:39.074Z,56.23
2023-02-14T17:32:06.797Z,59.03
2023-02-14T17:34:35.911Z,57.90
2023-02-14T17:37:04.082Z,55.80
2023-02-14T17:39:32.067Z,58.00
2023-02-14T17:41:59.714Z,59.77
2023-02-14T17:44:29.525Z,57.50
2023-02-14T17:46:57.925Z,58.10
2023-02-14T17:49:25.631Z,60.07
2023-02-14T17:51:54.645Z,59.37
2023-02-14T17:54:22.250Z,59.80
2023-02-14T17:56:49.999Z,60.17
2023-02-14T17:59:17.611Z,60.80
2023-02-14T18:01:45.287Z,61.70
2023-02-14T18:04:13.301Z,63.47
2023-02-14T18:06:42.768Z,62.30
2023-02-14T18:09:11.761Z,69.03
2023-02-14T18:11:42.280Z,66.57
2023-02-14T18:14:09.968Z,68.80
2023-02-14T18:16:38.843Z,62.87
2023-02-14T18:19:08.524Z,69.23
2023-02-14T18:21:39.992Z,68.47
2023-02-14T18:24:08.593Z,68.30
2023-02-14T18:26:39.086Z,66.10
2023-02-14T18:29:08.180Z,66.43
2023-02-14T18:31:37.536Z,75.63
2023-02-14T18:34:05.604Z,69.70
2023-02-14T18:36:35.711Z,76.37
2023-02-14T18:39:03.825Z,75.07
2023-02-14T18:41:32.001Z,73.30
2023-02-14T18:44:01.856Z,74.97
2023-02-14T18:46:34.206Z,73.10
2023-02-14T18:49:02.884Z,71.03
2023-02-14T18:51:32.877Z,74.93
2023-02-14T18:54:02.042Z,75.20
2023-02-14T18:56:31.443Z,79.73
2023-02-14T18:59:01.877Z,76.57
2023-02-14T19:01:31.817Z,82.30
2023-02-14T19:04:01.127Z,76.70
2023-02-14T19:06:31.296Z,79.93
2023-02-14T19:08:58.975Z,74.90
2023-02-14T19:11:28.635Z,74.67
2023-02-14T19:13:58.547Z,80.47
2023-02-14T19:16:29.810Z,82.43
2023-02-14T19:18:59.000Z,79.60
2023-02-14T19:21:30.351Z,83.07
2023-02-14T19:23:59.024Z,86.00
2023-02-14T19:26:30.065Z,83.30
2023-02-14T19:28:59.572Z,90.90
2023-02-14T19:31:28.804Z,97.47
2023-02-14T19:33:56.512Z,92.90
2023-02-14T19:36:25.039Z,91.27
2023-02-14T19:38:54.250Z,86.57
2023-02-14T19:41:24.497Z,86.17
2023-02-14T19:43:52.663Z,89.17
2023-02-14T19:46:22.670Z,88.27
2023-02-14T19:48:52.388Z,87.57
2023-02-14T19:51:22.993Z,95.70
2023-02-14T19:53:51.172Z,96.70
2023-02-14T19:56:21.327Z,93.40
2023-02-14T19:58:49.555Z,94.93
2023-02-14T20:01:25.568Z,90.63
2023-02-14T20:03:58.047Z,88.60
2023-02-14T20:06:27.309Z,90.37
2023-02-14T20:08:54.935Z,94.43
2023-02-14T20:11:30.470Z,101.37
2023-02-14T20:13:59.362Z,99.03
2023-02-14T20:16:29.358Z,96.43
2023-02-14T20:18:59.100Z,98.37
2023-02-14T20:21:28.323Z,106.20
2023-02-14T20:23:57.426Z,105.33
2023-02-14T20:26:25.646Z,116.37
2023-02-14T20:28:55.491Z,110.30
2023-02-14T20:31:24.018Z,105.50
2023-02-14T20:33:52.807Z,110.47
2023-02-14T20:36:22.341Z,112.37
2023-02-14T20:38:55.797Z,109.27
2023-02-14T20:41:23.485Z,117.10
2023-02-14T20:43:51.259Z,121.10
2023-02-14T20:46:19.073Z,120.43
2023-02-14T20:48:46.731Z,121.70
2023-02-14T20:51:16.615Z,122.23
2023-02-14T20:53:49.159Z,128.63
2023-02-14T20:56:18.136Z,129.60
2023-02-14T20:58:45.972Z,138.03
2023-02-14T21:01:15.713Z,138.13
2023-02-14T21:03:46.569Z,139.63
2023-02-14T21:06:16.680Z,145.20
2023-02-14T21:08:46.126Z,148.10
2023-02-14T21:11:17.557Z,145.13
2023-02-14T21:13:45.328Z,164.27
2023-02-14T21:16:15.819Z,154.57
2023-02-14T21:18:47.834Z,156.27
2023-02-14T21:21:19.053Z,159.20
2023-02-14T21:23:49.401Z,160.77
2023-02-14T21:26:17.326Z,164.60
2023-02-14T21:28:45.137Z,162.50
2023-02-14T21:31:14.928Z,160.53
2023-02-14T21:33:42.594Z,169.57
2023-02-14T21:36:12.300Z,175.93
2023-02-14T21:38:40.305Z,180.17
2023-02-14T21:41:14.978Z,177.00
2023-02-14T21:43:45.014Z,177.77
2023-02-14T21:46:14.395Z,174.90
2023-02-14T21:48:59.981Z,170.43
2023-02-14T21:51:28.359Z,179.50
2023-02-14T21:53:56.731Z,172.97
2023-02-14T21:56:25.651Z,187.23
2023-02-14T21:58:55.081Z,178.77
2023-02-14T22:01:24.373Z,179.20
2023-02-14T22:03:52.593Z,187.27
2023-02-14T22:06:20.710Z,187.73
2023-02-14T22:08:51.970Z,187.33
2023-02-14T22:11:20.186Z,191.00
2023-02-14T22:13:49.160Z,192.43
2023-02-14T22:16:19.454Z,192.60
2023-02-14T22:18:47.979Z,186.70
2023-02-14T22:21:19.707Z,191.53
2023-02-14T22:23:47.666Z,205.80
2023-02-14T22:26:18.084Z,205.80
2023-02-14T22:28:48.837Z,199.27
2023-02-14T22:31:19.860Z,199.60
2023-02-14T22:33:48.122Z,196.67
2023-02-14T22:36:16.513Z,196.97
2023-02-14T22:38:44.755Z,195.97
2023-02-14T22:41:14.222Z,207.73
2023-02-14T22:43:42.885Z,203.50
2023-02-14T22:46:12.975Z,207.40
2023-02-14T22:48:42.343Z,207.23
2023-02-14T22:51:12.599Z,215.13
2023-02-14T22:53:40.350Z,212.93
2023-02-14T22:56:12.882Z,209.33
2023-02-14T22:58:41.038Z,221.20
2023-02-14T23:01:13.955Z,208.37
2023-02-14T23:03:43.371Z,211.83
2023-02-14T23:06:11.850Z,224.13
2023-02-14T23:08:40.230Z,219.90
2023-02-14T23:11:09.612Z,214.33
2023-02-14T23:13:55.792Z,207.47
2023-02-14T23:16:40.766Z,195.00
2023-02-14T23:19:30.823Z,193.30
2023-02-14T23:21:59.231Z,186.13
2023-02-14T23:24:26.852Z,195.93
2023-02-14T23:26:56.155Z,186.20
2023-02-14T23:29:23.892Z,182.80
2023-02-14T23:31:51.762Z,196.67
2023-02-14T23:34:21.190Z,203.93
2023-02-14T23:36:48.854Z,210.47
2023-02-14T23:39:16.459Z,217.80
2023-02-14T23:41:49.181Z,216.33
2023-02-14T23:44:21.345Z,221.50
2023-02-14T23:46:50.057Z,221.93
2023-02-14T23:49:17.978Z,213.93
2023-02-14T23:51:48.754Z,213.67
2023-02-14T23:54:17.285Z,223.87
2023-02-14T23:56:45.838Z,208.20
2023-02-14T23:59:14.625Z,210.30
